sensor_id;sensor_type;location;lat;lon;timestamp;P1;durP1;ratioP1;P2;durP2;ratioP2
10959;SDS011;5532;50.978;13.872;2022-07-30T00:01:08;10.80;;;6.18;;
10959;SDS011;5532;50.978;13.872;2022-07-30T00:03:34;6.95;;;5.82;;
10959;SDS011;5532;50.978;13.872;2022-07-30T00:05:59;9.20;;;5.90;;
10959;SDS011;5532;50.978;13.872;2022-07-30T00:08:25;6.95;;;5.22;;
10959;SDS011;5532;50.978;13.872;2022-07-30T00:10:50;6.33;;;4.80;;
10959;SDS011;5532;50.978;13.872;2022-07-30T00:13:16;6.15;;;5.55;;
10959;SDS011;5532;50.978;13.872;2022-07-30T00:15:42;6.28;;;5.25;;
10959;SDS011;5532;50.978;13.872;2022-07-30T00:18:07;6.22;;;4.80;;
10959;SDS011;5532;50.978;13.872;2022-07-30T00:20:32;8.18;;;5.18;;
10959;SDS011;5532;50.978;13.872;2022-07-30T00:22:58;7.00;;;5.13;;
10959;SDS011;5532;50.978;13.872;2022-07-30T00:25:27;7.00;;;5.63;;
10959;SDS011;5532;50.978;13.872;2022-07-30T00:27:52;6.80;;;5.15;;
10959;SDS011;5532;50.978;13.872;2022-07-30T00:30:18;7.32;;;5.63;;
10959;SDS011;5532;50.978;13.872;2022-07-30T00:32:43;5.63;;;5.03;;
10959;SDS011;5532;50.978;13.872;2022-07-30T00:35:08;6.63;;;5.28;;
10959;SDS011;5532;50.978;13.872;2022-07-30T00:37:34;5.97;;;5.38;;
10959;SDS011;5532;50.978;13.872;2022-07-30T00:39:59;7.32;;;6.13;;
10959;SDS011;5532;50.978;13.872;2022-07-30T00:42:35;7.55;;;5.38;;
10959;SDS011;5532;50.978;13.872;2022-07-30T00:45:01;9.35;;;6.25;;
10959;SDS011;5532;50.978;13.872;2022-07-30T00:47:27;5.80;;;4.82;;
10959;SDS011;5532;50.978;13.872;2022-07-30T00:49:52;5.68;;;5.07;;
10959;SDS011;5532;50.978;13.872;2022-07-30T00:52:18;6.07;;;5.40;;
10959;SDS011;5532;50.978;13.872;2022-07-30T00:54:43;8.65;;;5.35;;
10959;SDS011;5532;50.978;13.872;2022-07-30T00:57:08;7.53;;;5.83;;
10959;SDS011;5532;50.978;13.872;2022-07-30T00:59:34;5.45;;;4.95;;
10959;SDS011;5532;50.978;13.872;2022-07-30T01:01:59;5.78;;;5.22;;
10959;SDS011;5532;50.978;13.872;2022-07-30T01:04:25;6.43;;;5.63;;
10959;SDS011;5532;50.978;13.872;2022-07-30T01:06:50;6.07;;;5.35;;
10959;SDS011;5532;50.978;13.872;2022-07-30T01:09:16;7.03;;;5.30;;
10959;SDS011;5532;50.978;13.872;2022-07-30T01:11:41;6.50;;;5.57;;
10959;SDS011;5532;50.978;13.872;2022-07-30T01:14:07;6.13;;;5.38;;
10959;SDS011;5532;50.978;13.872;2022-07-30T01:16:34;6.15;;;5.50;;
10959;SDS011;5532;50.978;13.872;2022-07-30T01:19:01;6.63;;;5.30;;
10959;SDS011;5532;50.978;13.872;2022-07-30T01:21:48;5.55;;;5.05;;
10959;SDS011;5532;50.978;13.872;2022-07-30T01:24:27;7.10;;;6.10;;
10959;SDS011;5532;50.978;13.872;2022-07-30T01:26:57;5.80;;;5.00;;
10959;SDS011;5532;50.978;13.872;2022-07-30T01:29:23;6.70;;;5.43;;
10959;SDS011;5532;50.978;13.872;2022-07-30T01:31:49;7.10;;;5.18;;
10959;SDS011;5532;50.978;13.872;2022-07-30T01:34:16;6.22;;;5.63;;
10959;SDS011;5532;50.978;13.872;2022-07-30T01:36:42;6.10;;;5.55;;
10959;SDS011;5532;50.978;13.872;2022-07-30T01:39:09;6.10;;;5.50;;
10959;SDS011;5532;50.978;13.872;2022-07-30T01:41:35;6.50;;;5.78;;
10959;SDS011;5532;50.978;13.872;2022-07-30T01:44:01;5.75;;;5.15;;
10959;SDS011;5532;50.978;13.872;2022-07-30T01:46:27;7.93;;;5.35;;
10959;SDS011;5532;50.978;13.872;2022-07-30T01:48:52;7.82;;;5.47;;
10959;SDS011;5532;50.978;13.872;2022-07-30T01:51:18;6.35;;;5.32;;
10959;SDS011;5532;50.978;13.872;2022-07-30T01:53:43;8.10;;;5.93;;
10959;SDS011;5532;50.978;13.872;2022-07-30T01:56:10;6.45;;;5.72;;
10959;SDS011;5532;50.978;13.872;2022-07-30T01:58:36;6.25;;;5.65;;
10959;SDS011;5532;50.978;13.872;2022-07-30T02:01:02;6.82;;;6.13;;
10959;SDS011;5532;50.978;13.872;2022-07-30T02:03:28;8.20;;;5.95;;
10959;SDS011;5532;50.978;13.872;2022-07-30T02:05:58;7.25;;;5.70;;
10959;SDS011;5532;50.978;13.872;2022-07-30T02:11:08;7.15;;;5.72;;
10959;SDS011;5532;50.978;13.872;2022-07-30T02:13:46;6.93;;;5.95;;
10959;SDS011;5532;50.978;13.872;2022-07-30T02:16:26;10.40;;;6.32;;
10959;SDS011;5532;50.978;13.872;2022-07-30T02:21:27;6.57;;;5.70;;
10959;SDS011;5532;50.978;13.872;2022-07-30T02:23:56;6.93;;;6.22;;
10959;SDS011;5532;50.978;13.872;2022-07-30T02:26:23;6.47;;;5.88;;
10959;SDS011;5532;50.978;13.872;2022-07-30T02:28:50;8.13;;;6.00;;
10959;SDS011;5532;50.978;13.872;2022-07-30T02:31:19;9.15;;;6.20;;
10959;SDS011;5532;50.978;13.872;2022-07-30T02:33:47;6.05;;;5.45;;
10959;SDS011;5532;50.978;13.872;2022-07-30T02:36:13;7.25;;;6.13;;
10959;SDS011;5532;50.978;13.872;2022-07-30T02:38:39;6.65;;;5.78;;
10959;SDS011;5532;50.978;13.872;2022-07-30T02:41:06;7.45;;;5.57;;
10959;SDS011;5532;50.978;13.872;2022-07-30T02:43:32;7.05;;;6.35;;
10959;SDS011;5532;50.978;13.872;2022-07-30T02:45:58;6.53;;;5.88;;
10959;SDS011;5532;50.978;13.872;2022-07-30T02:48:24;7.10;;;5.60;;
10959;SDS011;5532;50.978;13.872;2022-07-30T02:50:52;6.28;;;5.68;;
10959;SDS011;5532;50.978;13.872;2022-07-30T02:53:18;6.57;;;5.80;;
10959;SDS011;5532;50.978;13.872;2022-07-30T02:55:44;7.40;;;6.03;;
10959;SDS011;5532;50.978;13.872;2022-07-30T02:58:11;7.70;;;6.57;;
10959;SDS011;5532;50.978;13.872;2022-07-30T03:00:40;9.07;;;6.03;;
10959;SDS011;5532;50.978;13.872;2022-07-30T03:03:06;8.30;;;7.18;;
10959;SDS011;5532;50.978;13.872;2022-07-30T03:05:32;9.52;;;7.00;;
10959;SDS011;5532;50.978;13.872;2022-07-30T03:07:58;7.68;;;6.75;;
10959;SDS011;5532;50.978;13.872;2022-07-30T03:10:24;9.65;;;7.13;;
10959;SDS011;5532;50.978;13.872;2022-07-30T03:12:51;8.85;;;7.38;;
10959;SDS011;5532;50.978;13.872;2022-07-30T03:15:17;8.13;;;6.93;;
10959;SDS011;5532;50.978;13.872;2022-07-30T03:17:43;7.57;;;6.85;;
10959;SDS011;5532;50.978;13.872;2022-07-30T03:20:12;8.10;;;7.30;;
10959;SDS011;5532;50.978;13.872;2022-07-30T03:22:43;7.88;;;7.07;;
10959;SDS011;5532;50.978;13.872;2022-07-30T03:25:12;9.70;;;7.05;;
10959;SDS011;5532;50.978;13.872;2022-07-30T03:27:39;9.10;;;6.88;;
10959;SDS011;5532;50.978;13.872;2022-07-30T03:30:07;8.15;;;6.88;;
10959;SDS011;5532;50.978;13.872;2022-07-30T03:32:33;10.32;;;7.13;;
10959;SDS011;5532;50.978;13.872;2022-07-30T03:35:01;8.70;;;7.65;;
10959;SDS011;5532;50.978;13.872;2022-07-30T03:37:27;8.98;;;7.95;;
10959;SDS011;5532;50.978;13.872;2022-07-30T03:39:53;8.75;;;7.68;;
10959;SDS011;5532;50.978;13.872;2022-07-30T03:42:19;9.38;;;7.05;;
10959;SDS011;5532;50.978;13.872;2022-07-30T03:44:45;9.90;;;7.80;;
10959;SDS011;5532;50.978;13.872;2022-07-30T03:47:11;8.57;;;7.63;;
10959;SDS011;5532;50.978;13.872;2022-07-30T03:49:37;10.23;;;7.50;;
10959;SDS011;5532;50.978;13.872;2022-07-30T03:52:03;11.98;;;8.55;;
10959;SDS011;5532;50.978;13.872;2022-07-30T03:54:29;8.40;;;7.50;;
10959;SDS011;5532;50.978;13.872;2022-07-30T03:56:57;9.35;;;8.38;;
10959;SDS011;5532;50.978;13.872;2022-07-30T03:59:25;8.90;;;8.02;;
10959;SDS011;5532;50.978;13.872;2022-07-30T04:01:51;9.48;;;8.13;;
10959;SDS011;5532;50.978;13.872;2022-07-30T04:04:16;9.88;;;7.88;;
10959;SDS011;5532;50.978;13.872;2022-07-30T04:06:41;10.65;;;8.85;;
10959;SDS011;5532;50.978;13.872;2022-07-30T04:09:07;8.43;;;7.60;;
10959;SDS011;5532;50.978;13.872;2022-07-30T04:11:33;8.82;;;8.02;;
10959;SDS011;5532;50.978;13.872;2022-07-30T04:13:59;11.45;;;8.80;;
10959;SDS011;5532;50.978;13.872;2022-07-30T04:18:58;10.85;;;8.85;;
10959;SDS011;5532;50.978;13.872;2022-07-30T04:21:24;11.30;;;9.20;;
10959;SDS011;5532;50.978;13.872;2022-07-30T04:23:50;10.50;;;9.35;;
10959;SDS011;5532;50.978;13.872;2022-07-30T04:26:16;9.70;;;8.70;;
10959;SDS011;5532;50.978;13.872;2022-07-30T04:28:42;11.48;;;9.60;;
10959;SDS011;5532;50.978;13.872;2022-07-30T04:31:08;10.63;;;9.43;;
10959;SDS011;5532;50.978;13.872;2022-07-30T04:33:35;10.98;;;9.35;;
10959;SDS011;5532;50.978;13.872;2022-07-30T04:36:04;10.40;;;9.30;;
10959;SDS011;5532;50.978;13.872;2022-07-30T04:38:33;10.50;;;9.40;;
10959;SDS011;5532;50.978;13.872;2022-07-30T04:40:58;10.65;;;8.88;;
10959;SDS011;5532;50.978;13.872;2022-07-30T04:43:23;11.10;;;9.52;;
10959;SDS011;5532;50.978;13.872;2022-07-30T04:45:49;12.45;;;9.80;;
10959;SDS011;5532;50.978;13.872;2022-07-30T04:48:14;11.50;;;9.63;;
10959;SDS011;5532;50.978;13.872;2022-07-30T04:50:40;11.07;;;9.45;;
10959;SDS011;5532;50.978;13.872;2022-07-30T04:53:07;10.00;;;9.00;;
10959;SDS011;5532;50.978;13.872;2022-07-30T04:55:33;11.85;;;9.40;;
10959;SDS011;5532;50.978;13.872;2022-07-30T04:57:59;12.00;;;8.98;;
10959;SDS011;5532;50.978;13.872;2022-07-30T05:00:25;11.55;;;8.82;;
10959;SDS011;5532;50.978;13.872;2022-07-30T05:02:51;9.95;;;8.95;;
10959;SDS011;5532;50.978;13.872;2022-07-30T05:05:17;12.30;;;8.90;;
10959;SDS011;5532;50.978;13.872;2022-07-30T05:07:43;9.75;;;8.55;;
10959;SDS011;5532;50.978;13.872;2022-07-30T05:10:10;9.25;;;7.65;;
10959;SDS011;5532;50.978;13.872;2022-07-30T05:12:36;8.52;;;7.70;;
10959;SDS011;5532;50.978;13.872;2022-07-30T05:15:03;9.90;;;8.70;;
10959;SDS011;5532;50.978;13.872;2022-07-30T05:17:29;10.07;;;9.07;;
10959;SDS011;5532;50.978;13.872;2022-07-30T05:19:54;9.68;;;7.88;;
10959;SDS011;5532;50.978;13.872;2022-07-30T05:22:20;9.37;;;7.77;;
10959;SDS011;5532;50.978;13.872;2022-07-30T05:24:45;9.00;;;7.80;;
10959;SDS011;5532;50.978;13.872;2022-07-30T05:27:10;9.90;;;7.40;;
10959;SDS011;5532;50.978;13.872;2022-07-30T05:29:36;10.40;;;7.60;;
10959;SDS011;5532;50.978;13.872;2022-07-30T05:32:01;9.23;;;7.60;;
10959;SDS011;5532;50.978;13.872;2022-07-30T05:34:26;8.32;;;7.45;;
10959;SDS011;5532;50.978;13.872;2022-07-30T05:36:52;9.70;;;7.80;;
10959;SDS011;5532;50.978;13.872;2022-07-30T05:39:17;9.05;;;7.57;;
10959;SDS011;5532;50.978;13.872;2022-07-30T05:41:43;8.07;;;7.28;;
10959;SDS011;5532;50.978;13.872;2022-07-30T05:44:08;9.88;;;8.02;;
10959;SDS011;5532;50.978;13.872;2022-07-30T05:46:34;9.60;;;7.45;;
10959;SDS011;5532;50.978;13.872;2022-07-30T05:49:00;8.40;;;7.22;;
10959;SDS011;5532;50.978;13.872;2022-07-30T05:51:25;7.63;;;6.83;;
10959;SDS011;5532;50.978;13.872;2022-07-30T05:53:51;6.97;;;6.28;;
10959;SDS011;5532;50.978;13.872;2022-07-30T05:56:16;9.60;;;6.73;;
10959;SDS011;5532;50.978;13.872;2022-07-30T05:58:42;12.63;;;7.18;;
10959;SDS011;5532;50.978;13.872;2022-07-30T06:01:10;10.15;;;6.75;;
10959;SDS011;5532;50.978;13.872;2022-07-30T06:03:38;7.70;;;6.00;;
10959;SDS011;5532;50.978;13.872;2022-07-30T06:06:03;7.38;;;6.60;;
10959;SDS011;5532;50.978;13.872;2022-07-30T06:08:29;11.30;;;6.95;;
10959;SDS011;5532;50.978;13.872;2022-07-30T06:10:54;7.75;;;6.15;;
10959;SDS011;5532;50.978;13.872;2022-07-30T06:13:19;8.30;;;6.13;;
10959;SDS011;5532;50.978;13.872;2022-07-30T06:15:45;6.90;;;5.95;;
10959;SDS011;5532;50.978;13.872;2022-07-30T06:18:10;7.47;;;6.00;;
10959;SDS011;5532;50.978;13.872;2022-07-30T06:20:35;8.40;;;5.93;;
10959;SDS011;5532;50.978;13.872;2022-07-30T06:23:01;8.13;;;5.82;;
10959;SDS011;5532;50.978;13.872;2022-07-30T06:25:26;9.00;;;7.05;;
10959;SDS011;5532;50.978;13.872;2022-07-30T06:27:52;10.48;;;6.05;;
10959;SDS011;5532;50.978;13.872;2022-07-30T06:30:17;8.05;;;6.35;;
10959;SDS011;5532;50.978;13.872;2022-07-30T06:32:42;8.93;;;6.13;;
10959;SDS011;5532;50.978;13.872;2022-07-30T06:35:09;6.63;;;6.00;;
10959;SDS011;5532;50.978;13.872;2022-07-30T06:37:35;8.88;;;6.32;;
10959;SDS011;5532;50.978;13.872;2022-07-30T06:40:00;8.20;;;6.57;;
10959;SDS011;5532;50.978;13.872;2022-07-30T06:42:25;9.40;;;6.65;;
10959;SDS011;5532;50.978;13.872;2022-07-30T06:44:51;7.35;;;6.65;;
10959;SDS011;5532;50.978;13.872;2022-07-30T06:47:19;8.00;;;5.95;;
10959;SDS011;5532;50.978;13.872;2022-07-30T06:49:52;9.38;;;6.85;;
10959;SDS011;5532;50.978;13.872;2022-07-30T06:52:18;7.78;;;6.50;;
10959;SDS011;5532;50.978;13.872;2022-07-30T06:54:44;7.50;;;6.63;;
10959;SDS011;5532;50.978;13.872;2022-07-30T06:57:10;12.60;;;7.35;;
10959;SDS011;5532;50.978;13.872;2022-07-30T06:59:35;10.73;;;7.20;;
10959;SDS011;5532;50.978;13.872;2022-07-30T07:02:01;7.50;;;6.43;;
10959;SDS011;5532;50.978;13.872;2022-07-30T07:04:26;7.30;;;6.60;;
10959;SDS011;5532;50.978;13.872;2022-07-30T07:06:51;8.67;;;6.50;;
10959;SDS011;5532;50.978;13.872;2022-07-30T07:09:17;8.02;;;6.90;;
10959;SDS011;5532;50.978;13.872;2022-07-30T07:11:42;9.52;;;6.70;;
10959;SDS011;5532;50.978;13.872;2022-07-30T07:14:08;12.13;;;6.43;;
10959;SDS011;5532;50.978;13.872;2022-07-30T07:16:33;8.80;;;6.95;;
10959;SDS011;5532;50.978;13.872;2022-07-30T07:18:59;9.45;;;6.07;;
10959;SDS011;5532;50.978;13.872;2022-07-30T07:21:24;8.88;;;6.40;;
10959;SDS011;5532;50.978;13.872;2022-07-30T07:23:49;10.93;;;6.78;;
10959;SDS011;5532;50.978;13.872;2022-07-30T07:26:15;8.23;;;5.65;;
10959;SDS011;5532;50.978;13.872;2022-07-30T07:28:41;8.25;;;6.70;;
10959;SDS011;5532;50.978;13.872;2022-07-30T07:31:07;10.48;;;7.18;;
10959;SDS011;5532;50.978;13.872;2022-07-30T07:33:33;10.70;;;6.55;;
10959;SDS011;5532;50.978;13.872;2022-07-30T07:35:59;10.30;;;6.32;;
10959;SDS011;5532;50.978;13.872;2022-07-30T07:38:24;9.68;;;6.55;;
10959;SDS011;5532;50.978;13.872;2022-07-30T07:40:49;8.88;;;6.43;;
10959;SDS011;5532;50.978;13.872;2022-07-30T07:43:15;9.10;;;6.50;;
10959;SDS011;5532;50.978;13.872;2022-07-30T07:45:40;7.00;;;6.30;;
10959;SDS011;5532;50.978;13.872;2022-07-30T07:48:06;8.05;;;6.32;;
10959;SDS011;5532;50.978;13.872;2022-07-30T07:50:32;11.00;;;6.53;;
10959;SDS011;5532;50.978;13.872;2022-07-30T07:52:57;10.13;;;6.50;;
10959;SDS011;5532;50.978;13.872;2022-07-30T07:55:23;7.93;;;6.57;;
10959;SDS011;5532;50.978;13.872;2022-07-30T07:57:49;7.15;;;6.45;;
10959;SDS011;5532;50.978;13.872;2022-07-30T08:00:15;8.63;;;6.65;;
10959;SDS011;5532;50.978;13.872;2022-07-30T08:02:41;9.23;;;6.05;;
10959;SDS011;5532;50.978;13.872;2022-07-30T08:05:07;8.20;;;6.25;;
10959;SDS011;5532;50.978;13.872;2022-07-30T08:07:34;7.40;;;6.03;;
10959;SDS011;5532;50.978;13.872;2022-07-30T08:09:59;8.43;;;6.45;;
10959;SDS011;5532;50.978;13.872;2022-07-30T08:12:25;8.85;;;6.95;;
10959;SDS011;5532;50.978;13.872;2022-07-30T08:14:51;8.57;;;7.47;;
10959;SDS011;5532;50.978;13.872;2022-07-30T08:17:16;9.60;;;6.90;;
10959;SDS011;5532;50.978;13.872;2022-07-30T08:19:42;10.23;;;7.25;;
10959;SDS011;5532;50.978;13.872;2022-07-30T08:22:07;7.85;;;7.05;;
10959;SDS011;5532;50.978;13.872;2022-07-30T08:24:33;11.68;;;7.18;;
10959;SDS011;5532;50.978;13.872;2022-07-30T08:26:58;9.30;;;8.13;;
10959;SDS011;5532;50.978;13.872;2022-07-30T08:29:24;8.35;;;7.45;;
10959;SDS011;5532;50.978;13.872;2022-07-30T08:31:49;8.20;;;7.40;;
10959;SDS011;5532;50.978;13.872;2022-07-30T08:34:14;11.23;;;7.80;;
10959;SDS011;5532;50.978;13.872;2022-07-30T08:36:40;8.85;;;7.47;;
10959;SDS011;5532;50.978;13.872;2022-07-30T08:39:05;10.70;;;7.95;;
10959;SDS011;5532;50.978;13.872;2022-07-30T08:41:31;9.05;;;7.90;;
10959;SDS011;5532;50.978;13.872;2022-07-30T08:43:56;9.07;;;8.10;;
10959;SDS011;5532;50.978;13.872;2022-07-30T08:46:24;10.23;;;7.78;;
10959;SDS011;5532;50.978;13.872;2022-07-30T08:48:51;9.15;;;7.45;;
10959;SDS011;5532;50.978;13.872;2022-07-30T08:51:18;8.98;;;8.00;;
10959;SDS011;5532;50.978;13.872;2022-07-30T08:53:43;9.52;;;8.18;;
10959;SDS011;5532;50.978;13.872;2022-07-30T08:56:10;11.13;;;8.27;;
10959;SDS011;5532;50.978;13.872;2022-07-30T08:58:35;9.38;;;8.38;;
10959;SDS011;5532;50.978;13.872;2022-07-30T09:01:01;11.55;;;8.52;;
10959;SDS011;5532;50.978;13.872;2022-07-30T09:03:28;13.00;;;8.70;;
10959;SDS011;5532;50.978;13.872;2022-07-30T09:05:53;11.18;;;7.97;;
10959;SDS011;5532;50.978;13.872;2022-07-30T09:08:18;11.13;;;7.38;;
10959;SDS011;5532;50.978;13.872;2022-07-30T09:10:45;10.27;;;9.13;;
10959;SDS011;5532;50.978;13.872;2022-07-30T09:13:30;11.40;;;9.00;;
10959;SDS011;5532;50.978;13.872;2022-07-30T09:16:01;11.18;;;8.50;;
10959;SDS011;5532;50.978;13.872;2022-07-30T09:18:31;9.73;;;8.05;;
10959;SDS011;5532;50.978;13.872;2022-07-30T09:21:12;9.35;;;8.30;;
10959;SDS011;5532;50.978;13.872;2022-07-30T09:23:41;10.82;;;8.27;;
10959;SDS011;5532;50.978;13.872;2022-07-30T09:26:19;10.70;;;7.70;;
10959;SDS011;5532;50.978;13.872;2022-07-30T09:28:44;11.70;;;8.02;;
10959;SDS011;5532;50.978;13.872;2022-07-30T09:31:10;11.20;;;8.85;;
10959;SDS011;5532;50.978;13.872;2022-07-30T09:36:05;13.40;;;8.10;;
10959;SDS011;5532;50.978;13.872;2022-07-30T09:38:44;12.95;;;8.32;;
10959;SDS011;5532;50.978;13.872;2022-07-30T09:41:11;10.35;;;7.95;;
10959;SDS011;5532;50.978;13.872;2022-07-30T09:43:40;11.13;;;8.73;;
10959;SDS011;5532;50.978;13.872;2022-07-30T09:46:07;10.70;;;7.97;;
10959;SDS011;5532;50.978;13.872;2022-07-30T09:48:32;8.90;;;8.10;;
10959;SDS011;5532;50.978;13.872;2022-07-30T09:50:58;7.75;;;6.95;;
10959;SDS011;5532;50.978;13.872;2022-07-30T09:53:23;10.63;;;7.38;;
10959;SDS011;5532;50.978;13.872;2022-07-30T09:55:49;8.20;;;6.78;;
10959;SDS011;5532;50.978;13.872;2022-07-30T09:58:14;8.18;;;7.38;;
10959;SDS011;5532;50.978;13.872;2022-07-30T10:00:40;10.32;;;7.03;;
10959;SDS011;5532;50.978;13.872;2022-07-30T10:05:49;9.50;;;7.20;;
10959;SDS011;5532;50.978;13.872;2022-07-30T10:08:17;9.02;;;6.85;;
10959;SDS011;5532;50.978;13.872;2022-07-30T10:10:42;8.05;;;7.22;;
10959;SDS011;5532;50.978;13.872;2022-07-30T10:13:08;9.07;;;7.38;;
10959;SDS011;5532;50.978;13.872;2022-07-30T10:15:34;10.15;;;7.50;;
10959;SDS011;5532;50.978;13.872;2022-07-30T10:18:01;9.48;;;8.48;;
10959;SDS011;5532;50.978;13.872;2022-07-30T10:20:28;11.80;;;8.93;;
10959;SDS011;5532;50.978;13.872;2022-07-30T10:22:53;12.88;;;9.55;;
10959;SDS011;5532;50.978;13.872;2022-07-30T10:25:19;12.77;;;9.43;;
10959;SDS011;5532;50.978;13.872;2022-07-30T10:27:46;10.43;;;9.30;;
10959;SDS011;5532;50.978;13.872;2022-07-30T10:30:12;12.10;;;9.25;;
10959;SDS011;5532;50.978;13.872;2022-07-30T10:32:37;10.57;;;9.48;;
10959;SDS011;5532;50.978;13.872;2022-07-30T10:35:04;12.10;;;9.73;;
10959;SDS011;5532;50.978;13.872;2022-07-30T10:37:30;12.52;;;9.35;;
10959;SDS011;5532;50.978;13.872;2022-07-30T10:42:50;11.75;;;8.95;;
10959;SDS011;5532;50.978;13.872;2022-07-30T10:45:40;10.13;;;8.90;;
10959;SDS011;5532;50.978;13.872;2022-07-30T10:48:11;9.55;;;8.55;;
10959;SDS011;5532;50.978;13.872;2022-07-30T10:51:11;9.88;;;7.82;;
10959;SDS011;5532;50.978;13.872;2022-07-30T10:53:37;11.77;;;9.02;;
10959;SDS011;5532;50.978;13.872;2022-07-30T10:56:11;9.50;;;8.38;;
10959;SDS011;5532;50.978;13.872;2022-07-30T11:02:06;9.55;;;7.93;;
10959;SDS011;5532;50.978;13.872;2022-07-30T11:04:18;8.30;;;7.50;;
10959;SDS011;5532;50.978;13.872;2022-07-30T11:06:43;12.45;;;7.57;;
10959;SDS011;5532;50.978;13.872;2022-07-30T11:12:03;9.70;;;8.45;;
10959;SDS011;5532;50.978;13.872;2022-07-30T11:17:10;11.30;;;7.70;;
10959;SDS011;5532;50.978;13.872;2022-07-30T11:22:37;8.63;;;7.00;;
10959;SDS011;5532;50.978;13.872;2022-07-30T11:27:46;12.65;;;7.85;;
10959;SDS011;5532;50.978;13.872;2022-07-30T11:32:39;10.00;;;7.27;;
10959;SDS011;5532;50.978;13.872;2022-07-30T11:38:00;8.18;;;6.95;;
10959;SDS011;5532;50.978;13.872;2022-07-30T11:40:37;7.78;;;6.85;;
10959;SDS011;5532;50.978;13.872;2022-07-30T11:43:28;7.32;;;6.60;;
10959;SDS011;5532;50.978;13.872;2022-07-30T11:46:11;8.05;;;6.45;;
10959;SDS011;5532;50.978;13.872;2022-07-30T11:48:56;7.30;;;6.40;;
10959;SDS011;5532;50.978;13.872;2022-07-30T11:51:34;7.82;;;6.82;;
10959;SDS011;5532;50.978;13.872;2022-07-30T11:54:05;9.57;;;7.03;;
10959;SDS011;5532;50.978;13.872;2022-07-30T11:56:31;7.55;;;6.18;;
10959;SDS011;5532;50.978;13.872;2022-07-30T11:59:01;8.95;;;7.25;;
10959;SDS011;5532;50.978;13.872;2022-07-30T12:01:30;8.10;;;6.75;;
10959;SDS011;5532;50.978;13.872;2022-07-30T12:03:57;9.55;;;6.72;;
10959;SDS011;5532;50.978;13.872;2022-07-30T12:06:25;9.13;;;6.80;;
10959;SDS011;5532;50.978;13.872;2022-07-30T12:08:51;10.23;;;6.97;;
10959;SDS011;5532;50.978;13.872;2022-07-30T12:11:17;7.68;;;6.22;;
10959;SDS011;5532;50.978;13.872;2022-07-30T12:13:43;8.02;;;6.40;;
10959;SDS011;5532;50.978;13.872;2022-07-30T12:16:09;11.63;;;6.88;;
10959;SDS011;5532;50.978;13.872;2022-07-30T12:18:39;7.60;;;6.00;;
10959;SDS011;5532;50.978;13.872;2022-07-30T12:21:05;7.22;;;6.28;;
10959;SDS011;5532;50.978;13.872;2022-07-30T12:23:36;7.15;;;6.28;;
10959;SDS011;5532;50.978;13.872;2022-07-30T12:26:02;9.25;;;7.05;;
10959;SDS011;5532;50.978;13.872;2022-07-30T12:28:29;9.15;;;6.15;;
10959;SDS011;5532;50.978;13.872;2022-07-30T12:30:56;8.07;;;5.90;;
10959;SDS011;5532;50.978;13.872;2022-07-30T12:33:22;6.72;;;6.00;;
10959;SDS011;5532;50.978;13.872;2022-07-30T12:35:49;5.75;;;5.15;;
10959;SDS011;5532;50.978;13.872;2022-07-30T12:38:19;7.40;;;6.40;;
10959;SDS011;5532;50.978;13.872;2022-07-30T12:40:55;6.15;;;5.55;;
10959;SDS011;5532;50.978;13.872;2022-07-30T12:46:07;7.82;;;5.35;;
10959;SDS011;5532;50.978;13.872;2022-07-30T12:48:32;6.43;;;5.47;;
10959;SDS011;5532;50.978;13.872;2022-07-30T12:51:07;5.78;;;5.28;;
10959;SDS011;5532;50.978;13.872;2022-07-30T12:53:33;6.25;;;5.05;;
10959;SDS011;5532;50.978;13.872;2022-07-30T12:56:12;7.05;;;4.80;;
10959;SDS011;5532;50.978;13.872;2022-07-30T12:58:39;6.22;;;4.90;;
10959;SDS011;5532;50.978;13.872;2022-07-30T13:01:05;7.63;;;5.30;;
10959;SDS011;5532;50.978;13.872;2022-07-30T13:03:30;6.43;;;4.97;;
10959;SDS011;5532;50.978;13.872;2022-07-30T13:06:18;9.30;;;5.40;;
10959;SDS011;5532;50.978;13.872;2022-07-30T13:11:16;8.82;;;5.43;;
10959;SDS011;5532;50.978;13.872;2022-07-30T13:13:42;8.05;;;5.95;;
10959;SDS011;5532;50.978;13.872;2022-07-30T13:16:08;8.68;;;5.78;;
10959;SDS011;5532;50.978;13.872;2022-07-30T13:18:34;6.28;;;5.68;;
10959;SDS011;5532;50.978;13.872;2022-07-30T13:21:00;5.90;;;4.78;;
10959;SDS011;5532;50.978;13.872;2022-07-30T13:23:27;5.55;;;5.05;;
10959;SDS011;5532;50.978;13.872;2022-07-30T13:25:54;6.03;;;5.43;;
10959;SDS011;5532;50.978;13.872;2022-07-30T13:28:19;7.35;;;5.72;;
10959;SDS011;5532;50.978;13.872;2022-07-30T13:30:45;6.97;;;4.85;;
10959;SDS011;5532;50.978;13.872;2022-07-30T13:33:11;7.63;;;5.85;;
10959;SDS011;5532;50.978;13.872;2022-07-30T13:35:36;6.07;;;5.07;;
10959;SDS011;5532;50.978;13.872;2022-07-30T13:38:02;8.02;;;5.40;;
10959;SDS011;5532;50.978;13.872;2022-07-30T13:40:30;6.93;;;5.03;;
10959;SDS011;5532;50.978;13.872;2022-07-30T13:42:56;6.57;;;5.78;;
10959;SDS011;5532;50.978;13.872;2022-07-30T13:45:24;10.77;;;5.43;;
10959;SDS011;5532;50.978;13.872;2022-07-30T13:47:50;6.65;;;4.75;;
10959;SDS011;5532;50.978;13.872;2022-07-30T13:50:16;6.35;;;4.95;;
10959;SDS011;5532;50.978;13.872;2022-07-30T13:52:42;5.50;;;4.50;;
10959;SDS011;5532;50.978;13.872;2022-07-30T13:55:07;6.70;;;4.47;;
10959;SDS011;5532;50.978;13.872;2022-07-30T13:57:32;4.00;;;3.60;;
10959;SDS011;5532;50.978;13.872;2022-07-30T13:59:58;4.87;;;4.37;;
10959;SDS011;5532;50.978;13.872;2022-07-30T14:02:23;3.42;;;3.13;;
10959;SDS011;5532;50.978;13.872;2022-07-30T14:04:48;3.50;;;3.20;;
10959;SDS011;5532;50.978;13.872;2022-07-30T14:07:14;4.33;;;3.93;;
10959;SDS011;5532;50.978;13.872;2022-07-30T14:09:39;5.17;;;3.40;;
10959;SDS011;5532;50.978;13.872;2022-07-30T14:12:04;3.53;;;3.23;;
10959;SDS011;5532;50.978;13.872;2022-07-30T14:14:30;4.68;;;3.17;;
10959;SDS011;5532;50.978;13.872;2022-07-30T14:16:56;3.45;;;2.75;;
10959;SDS011;5532;50.978;13.872;2022-07-30T14:19:21;3.83;;;2.77;;
10959;SDS011;5532;50.978;13.872;2022-07-30T14:21:46;3.47;;;2.87;;
10959;SDS011;5532;50.978;13.872;2022-07-30T14:24:12;5.10;;;3.27;;
10959;SDS011;5532;50.978;13.872;2022-07-30T14:26:40;3.60;;;3.25;;
10959;SDS011;5532;50.978;13.872;2022-07-30T14:29:05;3.55;;;2.70;;
10959;SDS011;5532;50.978;13.872;2022-07-30T14:31:30;5.55;;;3.40;;
10959;SDS011;5532;50.978;13.872;2022-07-30T14:33:56;4.05;;;2.60;;
10959;SDS011;5532;50.978;13.872;2022-07-30T14:36:21;3.72;;;3.10;;
10959;SDS011;5532;50.978;13.872;2022-07-30T14:38:46;4.63;;;2.50;;
10959;SDS011;5532;50.978;13.872;2022-07-30T14:41:12;3.22;;;2.65;;
10959;SDS011;5532;50.978;13.872;2022-07-30T14:43:37;7.63;;;3.27;;
10959;SDS011;5532;50.978;13.872;2022-07-30T14:46:02;3.20;;;2.27;;
10959;SDS011;5532;50.978;13.872;2022-07-30T14:48:28;3.20;;;2.70;;
10959;SDS011;5532;50.978;13.872;2022-07-30T14:50:53;2.90;;;2.50;;
10959;SDS011;5532;50.978;13.872;2022-07-30T14:53:18;2.80;;;2.50;;
10959;SDS011;5532;50.978;13.872;2022-07-30T14:55:44;3.57;;;2.60;;
10959;SDS011;5532;50.978;13.872;2022-07-30T14:58:09;3.37;;;2.57;;
10959;SDS011;5532;50.978;13.872;2022-07-30T15:00:34;3.83;;;2.77;;
10959;SDS011;5532;50.978;13.872;2022-07-30T15:03:00;3.37;;;2.80;;
10959;SDS011;5532;50.978;13.872;2022-07-30T15:05:25;3.13;;;2.30;;
10959;SDS011;5532;50.978;13.872;2022-07-30T15:07:50;4.63;;;2.70;;
10959;SDS011;5532;50.978;13.872;2022-07-30T15:10:16;3.53;;;2.20;;
10959;SDS011;5532;50.978;13.872;2022-07-30T15:12:41;3.33;;;2.40;;
10959;SDS011;5532;50.978;13.872;2022-07-30T15:15:06;3.47;;;2.50;;
10959;SDS011;5532;50.978;13.872;2022-07-30T15:17:32;2.97;;;2.70;;
10959;SDS011;5532;50.978;13.872;2022-07-30T15:19:58;3.33;;;2.40;;
10959;SDS011;5532;50.978;13.872;2022-07-30T15:22:25;2.60;;;2.40;;
10959;SDS011;5532;50.978;13.872;2022-07-30T15:24:50;3.85;;;2.30;;